Time;durP1;ratioP1;P1;durP2;ratioP2;P2;SDS_P1;SDS_P2;PMS_P1;PMS_P2;Temp;Humidity;BMP_temperature;BMP_pressure;BME280_temperature;BME280_humidity;BME280_pressure;Samples;Min_cycle;Max_cycle;Signal;HPM_P1;HPM_P2
2022/02/10 00:16:33;;;;;;;0.40;0.30;;;;;;;9.78;90.03;101620.19;5054754;28;20497;-68
2022/02/10 00:19:16;;;;;;;0.40;0.30;;;;;;;9.80;90.22;101620.72;5055995;28;20441;-68
2022/02/10 00:21:52;;;;;;;0.40;0.30;;;;;;;9.79;89.98;101623.72;5055584;28;20771;-69
2022/02/10 00:35:23;;;;;;;0.40;0.30;;;;;;;9.72;90.15;101615.84;5055111;28;20906;-69
2022/02/10 00:37:58;;;;;;;0.40;0.30;;;;;;;9.69;90.41;101616.38;5055267;28;20474;-69
2022/02/10 00:40:28;;;;;;;0.40;0.30;;;;;;;9.71;90.40;101618.84;5055261;28;20818;-69
2022/02/10 00:42:54;;;;;;;0.40;0.30;;;;;;;9.69;90.12;101613.66;5055118;28;20469;-68
2022/02/10 00:45:21;;;;;;;0.40;0.30;;;;;;;9.67;89.99;101607.72;5055045;28;20817;-68
2022/02/10 00:47:54;;;;;;;0.40;0.30;;;;;;;9.63;90.33;101609.34;5054962;28;20438;-69
2022/02/10 00:50:22;;;;;;;0.40;0.30;;;;;;;9.66;90.00;101611.53;5055039;28;20434;-69
2022/02/10 00:52:50;;;;;;;0.40;0.30;;;;;;;9.68;89.91;101611.25;5054929;28;20477;-68
2022/02/10 00:55:23;;;;;;;0.40;0.30;;;;;;;9.65;90.24;101604.50;5054909;28;20512;-69
2022/02/10 00:57:51;;;;;;;0.40;0.30;;;;;;;9.68;90.53;101601.22;5054748;28;20470;-69
2022/02/10 01:00:46;;;;;;;0.40;0.30;;;;;;;9.68;90.24;101608.53;5054786;28;20531;-69
2022/02/10 01:11:47;;;;;;;0.40;0.30;;;;;;;9.54;90.69;101598.25;5054288;28;20899;-70
2022/02/10 01:24:25;;;;;;;0.40;0.30;;;;;;;9.51;91.22;101603.38;5053921;28;20462;-68
2022/02/10 01:31:02;;;;;;;0.40;0.30;;;;;;;9.47;91.05;101597.69;5054134;28;20778;-69
2022/02/10 01:33:30;;;;;;;0.40;0.30;;;;;;;9.47;91.06;101592.28;5054193;28;20492;-69
2022/02/10 01:35:57;;;;;;;0.40;0.30;;;;;;;9.45;90.76;101589.03;5054096;28;20446;-69
2022/02/10 01:38:23;;;;;;;0.80;0.80;;;;;;;9.47;90.62;101586.88;5053697;28;21030;-69
2022/02/10 01:41:18;;;;;;;0.40;0.30;;;;;;;9.48;90.81;101583.09;5054073;28;20453;-69
2022/02/10 02:05:46;;;;;;;0.40;0.30;;;;;;;9.46;91.10;101562.81;5053400;28;20418;-70
2022/02/10 02:08:14;;;;;;;0.40;0.30;;;;;;;9.43;91.78;101555.22;5053287;28;20939;-70
2022/02/10 02:10:40;;;;;;;0.40;0.30;;;;;;;9.43;91.16;101561.47;5053517;28;20868;-70
2022/02/10 02:13:07;;;;;;;0.40;0.30;;;;;;;9.47;90.94;101559.00;5053365;28;20465;-70
2022/02/10 02:15:34;;;;;;;0.40;0.30;;;;;;;9.42;91.15;101562.53;5053078;28;20469;-69
2022/02/10 02:18:01;;;;;;;0.40;0.30;;;;;;;9.45;91.30;101558.50;5053284;28;20482;-70
2022/02/10 02:20:28;;;;;;;0.40;0.30;;;;;;;9.44;91.64;101556.88;5053290;28;20450;-69
2022/02/10 02:22:56;;;;;;;0.40;0.30;;;;;;;9.47;91.63;101553.59;5052869;28;20981;-67
2022/02/10 02:25:22;;;;;;;0.80;0.80;;;;;;;9.50;90.92;101553.06;5052853;28;20453;-69
2022/02/10 02:27:54;;;;;;;0.40;0.30;;;;;;;9.42;91.10;101556.31;5053314;28;20438;-70
2022/02/10 02:30:24;;;;;;;0.40;0.30;;;;;;;9.49;91.26;101548.75;5053154;28;20446;-69
2022/02/10 02:33:16;;;;;;;0.40;0.27;;;;;;;9.52;91.03;101550.94;5053134;28;20458;-69
2022/02/10 02:36:02;;;;;;;0.40;0.30;;;;;;;9.53;90.80;101544.44;5052791;28;20443;-69
2022/02/10 02:38:48;;;;;;;0.40;0.30;;;;;;;9.52;90.78;101540.13;5052920;28;20488;-70
2022/02/10 03:05:59;;;;;;;0.40;0.30;;;;;;;9.44;89.88;101516.31;5052866;28;20458;-70
2022/02/10 03:08:26;;;;;;;0.40;0.30;;;;;;;9.43;90.62;101515.50;5052958;28;20422;-69
2022/02/10 03:11:06;;;;;;;0.40;0.30;;;;;;;9.43;90.45;101504.69;5052656;28;20810;-69
2022/02/10 03:13:37;;;;;;;0.40;0.30;;;;;;;9.41;90.31;101506.84;5052773;28;20469;-70
2022/02/10 03:16:25;;;;;;;0.40;0.30;;;;;;;9.41;90.06;101496.00;5052506;28;20982;-69
2022/02/10 03:18:58;;;;;;;0.40;0.30;;;;;;;9.39;90.29;101497.38;5052407;28;20987;-70
2022/02/10 03:21:45;;;;;;;0.40;0.30;;;;;;;9.39;91.00;101489.28;5053062;28;20435;-70
2022/02/10 04:00:54;;;;;;;0.40;0.30;;;;;;;9.20;91.43;101430.31;5055789;28;20406;-69
2022/02/10 04:06:23;;;;;;;0.40;0.30;;;;;;;9.20;90.77;101421.41;5035347;28;20451;-69
2022/02/10 04:09:15;;;;;;;0.40;0.20;;;;;;;9.13;90.75;101416.28;5055870;28;20510;-70
2022/02/10 04:14:31;;;;;;;0.40;0.30;;;;;;;9.12;90.68;101411.97;5043581;28;20450;-70
2022/02/10 04:17:19;;;;;;;0.40;0.23;;;;;;;9.12;90.83;101413.81;5056405;28;20458;-70
2022/02/10 04:22:41;;;;;;;0.40;0.30;;;;;;;9.16;91.33;101406.81;5055644;28;20441;-71
2022/02/10 04:25:30;;;;;;;0.40;0.30;;;;;;;9.16;91.31;101407.59;5055554;28;20447;-70
2022/02/10 04:28:11;;;;;;;0.40;0.30;;;;;;;9.15;90.74;101407.88;5055545;28;20525;-70
2022/02/10 04:31:00;;;;;;;0.40;0.30;;;;;;;9.14;91.34;101409.78;5055437;28;20441;-69
2022/02/10 04:45:03;;;;;;;0.40;0.30;;;;;;;9.16;90.15;101396.78;5055228;28;20453;-70
2022/02/10 04:55:52;;;;;;;0.40;0.30;;;;;;;9.18;89.61;101381.13;5055040;28;20410;-72
2022/02/10 04:58:40;;;;;;;0.40;0.30;;;;;;;9.18;89.71;101377.63;5054855;28;20501;-71
2022/02/10 05:01:19;;;;;;;0.40;0.30;;;;;;;9.20;89.44;101378.97;5054502;28;20912;-70
2022/02/10 05:04:19;;;;;;;0.40;0.30;;;;;;;9.21;88.95;101367.09;5054688;28;20470;-71
2022/02/10 05:07:15;;;;;;;0.40;0.30;;;;;;;9.22;89.52;101371.41;5054234;28;20442;-69
2022/02/10 05:13:36;;;;;;;0.40;0.30;;;;;;;9.25;89.84;101368.16;5054577;28;20441;-73
2022/02/10 05:18:51;;;;;;;0.40;0.30;;;;;;;9.29;90.11;101368.41;5037141;28;20480;-72
2022/02/10 05:21:32;;;;;;;0.40;0.30;;;;;;;9.28;90.70;101356.78;5054788;28;20814;-72
2022/02/10 05:35:24;;;;;;;0.40;0.27;;;;;;;9.29;89.88;101360.28;5054344;28;20456;-72
2022/02/10 05:37:55;;;;;;;0.40;0.30;;;;;;;9.27;89.43;101357.88;5054931;28;20466;-72
2022/02/10 05:40:47;;;;;;;0.60;0.60;;;;;;;9.27;89.12;101351.66;5066503;28;20462;-72
2022/02/10 05:43:35;;;;;;;0.40;0.30;;;;;;;9.26;89.05;101347.34;5054514;28;20451;-71
2022/02/10 05:46:13;;;;;;;0.40;0.30;;;;;;;9.21;89.27;101345.47;5053784;28;20514;-72
2022/02/10 05:49:03;;;;;;;0.40;0.30;;;;;;;9.20;89.77;101343.81;5053755;28;20433;-72
2022/02/10 05:54:36;;;;;;;0.40;0.20;;;;;;;9.25;88.88;101329.47;5040542;28;20442;-71
2022/02/10 05:57:16;;;;;;;0.40;0.30;;;;;;;9.27;89.35;101333.53;5053814;28;20812;-72
2022/02/10 06:00:13;;;;;;;0.40;0.30;;;;;;;9.29;89.37;101335.97;5053396;28;20441;-73
2022/02/10 06:47:22;;;;;;;0.40;0.30;;;;;;;9.18;87.39;101308.16;5032985;28;20506;-74
2022/02/10 06:50:17;;;;;;;0.40;0.30;;;;;;;9.20;87.66;101292.47;5052734;28;21010;-74
2022/02/10 06:52:54;;;;;;;0.40;0.30;;;;;;;9.18;87.84;101285.72;5053077;28;20462;-74
2022/02/10 06:55:39;;;;;;;0.40;0.30;;;;;;;9.19;87.26;101281.94;5053276;28;20520;-74
2022/02/10 06:58:43;;;;;;;0.40;0.30;;;;;;;9.19;86.81;101280.03;5053166;28;20504;-70
2022/02/10 07:04:21;;;;;;;0.40;0.30;;;;;;;9.19;87.61;101277.34;5052860;28;20970;-73
2022/02/10 07:07:09;;;;;;;0.40;0.30;;;;;;;9.20;86.88;101270.84;5054890;28;20537;-77
2022/02/10 07:09:57;;;;;;;0.40;0.30;;;;;;;9.22;87.73;101278.69;5054714;28;20462;-75
2022/02/10 07:15:38;;;;;;;0.40;0.30;;;;;;;9.27;88.20;101263.25;5019155;28;20578;-77
2022/02/10 07:51:38;;;;;;;0.40;0.30;;;;;;;9.38;85.74;101253.22;5056380;28;20402;-71
2022/02/10 07:54:15;;;;;;;0.40;0.30;;;;;;;9.44;86.37;101251.31;5056245;28;20431;-72
2022/02/10 07:56:52;;;;;;;0.40;0.30;;;;;;;9.46;85.97;101243.72;5056114;28;20500;-72
2022/02/10 07:59:57;;;;;;;0.40;0.30;;;;;;;9.47;85.23;101250.75;5055950;28;20484;-72
2022/02/10 08:57:51;;;;;;;0.40;0.30;;;;;;;10.61;81.49;101188.25;5054870;28;20494;-70
2022/02/10 09:00:58;;;;;;;0.40;0.30;;;;;;;10.61;81.80;101189.06;5054556;28;20907;-69
2022/02/10 09:03:36;;;;;;;0.40;0.27;;;;;;;10.60;82.37;101192.06;5055354;28;20474;-70
2022/02/10 09:06:10;;;;;;;0.40;0.27;;;;;;;10.59;82.89;101185.84;5055824;28;20446;-69
2022/02/10 09:17:23;;;;;;;0.40;0.30;;;;;;;10.52;82.70;101177.25;5054327;28;20410;-68
2022/02/10 09:58:47;;;;;;;0.40;0.30;;;;;;;10.67;83.62;101142.94;5035180;28;20892;-71
2022/02/10 10:01:21;;;;;;;0.40;0.30;;;;;;;10.78;84.25;101139.06;5053301;28;20569;-70
2022/02/10 10:03:57;;;;;;;0.40;0.30;;;;;;;10.81;83.84;101133.88;5053389;28;21029;-71
2022/02/10 10:06:43;;;;;;;0.40;0.30;;;;;;;10.90;82.96;101130.53;5054403;28;20446;-70
2022/02/10 10:09:28;;;;;;;0.40;0.30;;;;;;;10.96;83.02;101129.34;5052387;28;20470;-70
2022/02/10 10:14:49;;;;;;;0.40;0.30;;;;;;;11.00;81.85;101124.97;5053230;28;20441;-72
2022/02/10 10:17:30;;;;;;;0.40;0.30;;;;;;;10.99;82.62;101123.34;5053601;28;20430;-70
2022/02/10 10:20:09;;;;;;;0.40;0.30;;;;;;;10.97;83.08;101126.34;5053795;28;20466;-70
2022/02/10 10:23:09;;;;;;;0.40;0.30;;;;;;;10.95;82.56;101109.56;5053586;28;20462;-72
2022/02/10 10:51:02;;;;;;;0.40;0.30;;;;;;;11.33;81.10;101104.16;5053151;28;20418;-72
2022/02/10 10:53:36;;;;;;;0.40;0.30;;;;;;;11.33;80.41;101091.44;5053079;28;20485;-70
2022/02/10 10:56:10;;;;;;;0.40;0.30;;;;;;;11.40;80.41;101092.97;5052866;28;20426;-70
2022/02/10 10:58:41;;;;;;;0.40;0.30;;;;;;;11.46;80.69;101089.06;5053012;28;20541;-72
2022/02/10 11:38:26;;;;;;;0.40;0.30;;;;;;;11.28;79.06;101058.94;5052517;28;20460;-71
2022/02/10 11:44:22;;;;;;;0.40;0.30;;;;;;;11.14;80.21;101055.38;5052038;28;20818;-70
2022/02/10 12:36:24;;;;;;;0.40;0.30;;;;;;;10.81;82.90;101039.03;5035312;28;20495;-76
2022/02/10 14:11:13;;;;;;;0.40;0.30;;;;;;;6.14;100.00;101126.41;5033449;28;20813;-74
2022/02/10 14:13:39;;;;;;;0.40;0.30;;;;;;;6.26;100.00;101130.53;5033415;28;20968;-75
2022/02/10 14:16:26;;;;;;;0.40;0.23;;;;;;;6.30;100.00;101133.53;5033704;28;20431;-75
2022/02/10 14:18:56;;;;;;;0.40;0.30;;;;;;;6.35;100.00;101133.56;5033924;28;20475;-75
2022/02/10 14:21:31;;;;;;;0.40;0.30;;;;;;;6.44;100.00;101134.69;5033321;28;20486;-74
2022/02/10 14:26:48;;;;;;;0.40;0.30;;;;;;;6.38;100.00;101143.00;5033417;28;20410;-74
2022/02/10 14:29:15;;;;;;;0.40;0.30;;;;;;;6.31;100.00;101145.91;5034220;28;20424;-74
2022/02/10 14:31:44;;;;;;;0.40;0.30;;;;;;;6.23;100.00;101149.88;5033354;28;20463;-74
2022/02/10 14:34:10;;;;;;;0.40;0.30;;;;;;;6.28;100.00;101144.53;5033349;28;20486;-74
2022/02/10 14:36:44;;;;;;;0.40;0.30;;;;;;;6.12;100.00;101147.38;5033308;28;20443;-74
2022/02/10 14:39:23;;;;;;;0.40;0.20;;;;;;;5.97;100.00;101145.38;5033393;28;20467;-74
2022/02/10 16:16:07;;;;;;;0.40;0.30;;;;;;;6.68;100.00;101223.09;5034986;28;20443;-72
2022/02/10 16:18:18;;;;;;;0.40;0.30;;;;;;;6.65;100.00;101218.25;5034631;28;20451;-72
2022/02/10 16:20:49;;;;;;;0.40;0.30;;;;;;;6.63;100.00;101228.47;5035229;28;20483;-72
2022/02/10 16:23:18;;;;;;;0.40;0.23;;;;;;;6.60;100.00;101221.72;5035031;28;20515;-73
2022/02/10 16:25:49;;;;;;;0.40;0.30;;;;;;;6.60;100.00;101215.50;5034738;28;20435;-72
2022/02/10 16:28:25;;;;;;;0.40;0.30;;;;;;;6.61;100.00;101209.09;5034990;28;20431;-72
2022/02/10 16:30:55;;;;;;;0.40;0.30;;;;;;;6.58;100.00;101213.09;5034875;28;20479;-72
2022/02/10 16:33:21;;;;;;;0.40;0.30;;;;;;;6.57;100.00;101214.16;5034854;28;20450;-72
2022/02/10 16:35:48;;;;;;;0.40;0.30;;;;;;;6.54;100.00;101220.06;5034901;28;20443;-71
2022/02/10 16:38:14;;;;;;;0.40;0.20;;;;;;;6.53;100.00;101223.81;5034644;28;20493;-72
2022/02/10 16:40:41;;;;;;;0.40;0.30;;;;;;;6.54;100.00;101218.16;5034537;28;20482;-72
2022/02/10 16:43:08;;;;;;;0.40;0.20;;;;;;;6.51;100.00;101224.09;5033882;28;20823;-69
2022/02/10 16:45:35;;;;;;;0.40;0.30;;;;;;;6.57;100.00;101216.84;5034644;28;20443;-73
2022/02/10 16:48:03;;;;;;;0.40;0.27;;;;;;;6.57;100.00;101219.53;5034539;28;20443;-73
2022/02/10 16:50:30;;;;;;;0.40;0.23;;;;;;;6.58;100.00;101218.47;5034305;28;21019;-73
2022/02/10 16:53:00;;;;;;;0.40;0.30;;;;;;;6.61;100.00;101226.03;5034869;28;20913;-71
2022/02/10 16:55:39;;;;;;;0.40;0.30;;;;;;;6.58;100.00;101231.94;5035053;28;20467;-72
2022/02/10 16:58:17;;;;;;;0.40;0.23;;;;;;;6.60;100.00;101237.88;5035055;28;20525;-72
2022/02/10 17:03:46;;;;;;;0.40;0.20;;;;;;;6.53;100.00;101256.13;5017148;28;20818;-72
2022/02/10 17:14:59;;;;;;;0.93;0.93;;;;;;;6.46;100.00;101258.19;5034820;28;20549;-72
2022/02/10 17:17:56;;;;;;;0.40;0.30;;;;;;;6.44;100.00;101257.66;5034386;28;20435;-72
2022/02/10 17:20:43;;;;;;;0.40;0.30;;;;;;;6.40;100.00;101257.34;5034494;28;20490;-72
2022/02/10 17:26:06;;;;;;;0.40;0.30;;;;;;;6.43;100.00;101264.94;5034734;28;20414;-72
2022/02/10 17:28:33;;;;;;;0.40;0.30;;;;;;;6.49;100.00;101268.47;5034167;28;20439;-72
2022/02/10 17:34:14;;;;;;;0.50;0.50;;;;;;;6.49;100.00;101268.47;5020377;28;20487;-72
2022/02/10 17:36:47;;;;;;;0.40;0.30;;;;;;;6.52;100.00;101284.09;5034109;28;20962;-70
2022/02/10 17:42:17;;;;;;;0.40;0.30;;;;;;;6.50;100.00;101276.25;5033950;28;20446;-71
2022/02/10 17:45:07;;;;;;;0.40;0.30;;;;;;;6.53;100.00;101275.75;5034165;28;20435;-71
2022/02/10 17:53:05;;;;;;;0.40;0.30;;;;;;;6.54;100.00;101288.16;5034033;28;20407;-71
2022/02/10 17:55:32;;;;;;;0.40;0.20;;;;;;;6.54;100.00;101292.72;5033186;28;20549;-71
2022/02/10 17:57:59;;;;;;;0.40;0.30;;;;;;;6.54;100.00;101292.72;5033928;28;20447;-71
2022/02/10 18:00:26;;;;;;;0.40;0.30;;;;;;;6.55;100.00;101295.16;5033686;28;20494;-73
2022/02/10 18:02:55;;;;;;;0.40;0.20;;;;;;;6.53;100.00;101293.78;5033831;28;20458;-73
2022/02/10 18:06:07;;;;;;;0.40;0.30;;;;;;;6.53;100.00;101291.91;5033980;28;20447;-73
2022/02/10 18:08:40;;;;;;;0.40;0.30;;;;;;;6.52;100.00;101284.09;5033773;28;20431;-73
2022/02/10 18:13:55;;;;;;;0.40;0.30;;;;;;;6.59;100.00;101284.69;5033226;28;20414;-74
2022/02/10 18:16:26;;;;;;;0.40;0.30;;;;;;;6.61;100.00;101287.94;5033431;28;20435;-74
2022/02/10 18:18:57;;;;;;;0.40;0.30;;;;;;;6.63;100.00;101287.69;5033409;28;20431;-74
2022/02/10 18:21:36;;;;;;;0.40;0.30;;;;;;;6.66;100.00;101297.94;5033008;28;20984;-73
2022/02/10 18:24:29;;;;;;;0.40;0.20;;;;;;;6.62;100.00;101294.94;5033574;28;20445;-71
2022/02/10 18:27:04;;;;;;;0.40;0.30;;;;;;;6.65;100.00;101294.44;5033077;28;20828;-70
2022/02/10 18:29:49;;;;;;;0.40;0.30;;;;;;;6.67;100.00;101297.66;5033485;28;20438;-70
2022/02/10 19:01:35;;;;;;;0.40;0.30;;;;;;;6.71;100.00;101311.44;5002548;28;20435;-71
2022/02/10 19:08:44;;;;;;;0.40;0.30;;;;;;;6.72;100.00;101303.09;4976022;28;20480;-68
2022/02/10 19:11:13;;;;;;;0.40;0.30;;;;;;;6.74;100.00;101308.25;5028991;28;21020;-70
2022/02/10 19:13:41;;;;;;;0.40;0.20;;;;;;;6.74;100.00;101302.84;5037146;28;20520;-71
2022/02/10 19:16:07;;;;;;;0.40;0.30;;;;;;;6.75;100.00;101307.97;5036728;28;20457;-71
2022/02/10 19:18:34;;;;;;;0.40;0.27;;;;;;;6.69;100.00;101311.69;5036963;28;20509;-71
2022/02/10 19:21:00;;;;;;;0.40;0.30;;;;;;;6.73;100.00;101302.03;5036349;28;20865;-70
2022/02/10 19:23:27;;;;;;;0.40;0.20;;;;;;;6.71;100.00;101312.25;5037006;28;20450;-71
2022/02/10 19:25:53;;;;;;;0.40;0.30;;;;;;;6.75;100.00;101320.63;5036657;28;20451;-71
2022/02/10 19:28:20;;;;;;;0.40;0.30;;;;;;;6.69;100.00;101309.00;5036752;28;20435;-71
2022/02/10 19:30:49;;;;;;;0.40;0.30;;;;;;;6.74;100.00;101314.44;5036634;28;20455;-71
2022/02/10 19:33:16;;;;;;;0.40;0.30;;;;;;;6.74;100.00;101314.44;5036618;28;20461;-71
2022/02/10 19:35:45;;;;;;;0.40;0.30;;;;;;;6.73;100.00;101310.13;5036717;28;20497;-71
2022/02/10 19:38:15;;;;;;;0.40;0.30;;;;;;;6.76;100.00;101312.28;5036632;28;20446;-71
2022/02/10 19:40:43;;;;;;;0.40;0.30;;;;;;;6.74;100.00;101300.97;5036380;28;20497;-71
2022/02/10 19:43:10;;;;;;;0.40;0.30;;;;;;;6.75;100.00;101309.84;5036087;28;20834;-71
2022/02/10 19:45:39;;;;;;;0.40;0.30;;;;;;;6.79;100.00;101311.78;5036291;28;21101;-71
2022/02/10 19:48:07;;;;;;;0.40;0.30;;;;;;;6.74;100.00;101305.53;5036473;28;20446;-70
2022/02/10 19:50:34;;;;;;;0.40;0.30;;;;;;;6.77;100.00;101302.31;5035715;28;20533;-70
2022/02/10 19:53:03;;;;;;;0.40;0.30;;;;;;;6.78;100.00;101306.66;5036339;28;20427;-71
2022/02/10 19:55:33;;;;;;;0.40;0.30;;;;;;;6.78;100.00;101307.47;5035964;28;20435;-71
2022/02/10 19:58:03;;;;;;;0.40;0.30;;;;;;;6.78;100.00;101307.47;5036199;28;20471;-71
2022/02/10 20:00:35;;;;;;;0.40;0.30;;;;;;;6.73;100.00;101302.03;5036142;28;20577;-71
2022/02/10 20:03:07;;;;;;;0.40;0.23;;;;;;;6.71;100.00;101304.16;5036325;28;20435;-71
2022/02/10 20:05:35;;;;;;;0.40;0.20;;;;;;;6.71;100.00;101298.78;5035350;28;20447;-71
2022/02/10 20:08:02;;;;;;;0.40;0.30;;;;;;;6.72;100.00;101304.97;5035949;28;20454;-71
2022/02/10 20:10:28;;;;;;;0.40;0.30;;;;;;;6.74;100.00;101308.25;5035904;28;20557;-71
2022/02/10 20:12:54;;;;;;;0.40;0.20;;;;;;;6.70;100.00;101307.13;5035585;28;20450;-71
2022/02/10 20:15:22;;;;;;;0.40;0.30;;;;;;;6.68;100.00;101301.16;5035284;28;20451;-71
2022/02/10 20:17:51;;;;;;;0.40;0.30;;;;;;;6.70;100.00;101299.84;5034727;28;20517;-71
2022/02/10 20:20:17;;;;;;;0.40;0.30;;;;;;;6.70;100.00;101302.56;5035289;28;20479;-71
2022/02/10 20:22:45;;;;;;;0.40;0.20;;;;;;;6.70;100.00;101301.75;5035318;28;20443;-71
2022/02/10 20:25:11;;;;;;;0.40;0.20;;;;;;;6.72;100.00;101305.78;5035041;28;20451;-71
2022/02/10 20:27:38;;;;;;;0.40;0.30;;;;;;;6.71;100.00;101298.78;5034105;28;20557;-71
2022/02/10 20:30:07;;;;;;;0.40;0.27;;;;;;;6.70;100.00;101307.94;5035077;28;20466;-71
2022/02/10 20:32:33;;;;;;;0.40;0.30;;;;;;;6.67;100.00;101303.06;5035280;28;20446;-71
2022/02/10 20:35:01;;;;;;;0.40;0.20;;;;;;;6.67;100.00;101303.06;5035152;28;20431;-71
2022/02/10 20:37:28;;;;;;;0.40;0.20;;;;;;;6.64;100.00;101306.28;5035017;28;20840;-71
2022/02/10 20:39:56;;;;;;;0.40;0.30;;;;;;;6.68;100.00;101298.47;5034811;28;20991;-71
2022/02/10 20:42:23;;;;;;;0.40;0.30;;;;;;;6.65;100.00;101310.59;5034884;28;20557;-71
2022/02/10 20:44:54;;;;;;;0.40;0.30;;;;;;;6.68;100.00;101301.97;5035339;28;20501;-71
2022/02/10 20:47:23;;;;;;;0.40;0.30;;;;;;;6.69;100.00;101308.19;5034997;28;20439;-71
2022/02/10 20:49:50;;;;;;;0.40;0.30;;;;;;;6.69;100.00;101306.31;5034932;28;20928;-71
2022/02/10 20:52:16;;;;;;;0.40;0.20;;;;;;;6.70;100.00;101302.56;5034562;28;20471;-71
2022/02/10 20:54:43;;;;;;;0.40;0.30;;;;;;;6.75;100.00;101299.09;5035051;28;20447;-71
2022/02/10 20:57:10;;;;;;;0.40;0.20;;;;;;;6.74;100.00;101292.88;5034623;28;20450;-71
2022/02/10 20:59:40;;;;;;;0.40;0.30;;;;;;;6.70;100.00;101299.84;5034754;28;20451;-71
2022/02/10 21:02:10;;;;;;;0.40;0.30;;;;;;;6.71;100.00;101303.34;5034989;28;20459;-71
2022/02/10 21:04:41;;;;;;;0.40;0.20;;;;;;;6.71;100.00;101306.06;5035107;28;20455;-71
2022/02/10 21:07:13;;;;;;;0.40;0.30;;;;;;;6.67;100.00;101300.38;5034658;28;20443;-71
2022/02/10 21:09:44;;;;;;;0.40;0.23;;;;;;;6.70;100.00;101302.56;5034560;28;20439;-71
2022/02/10 21:12:13;;;;;;;0.40;0.20;;;;;;;6.69;100.00;101303.63;5034800;28;20475;-71
2022/02/10 21:14:41;;;;;;;0.40;0.27;;;;;;;6.71;100.00;101297.97;5034774;28;20447;-71
2022/02/10 21:17:10;;;;;;;0.40;0.30;;;;;;;6.69;100.00;101300.94;5034687;28;20534;-71
2022/02/10 21:19:37;;;;;;;0.40;0.30;;;;;;;6.72;100.00;101305.78;5034630;28;20534;-71
2022/02/10 21:22:08;;;;;;;0.40;0.40;;;;;;;6.73;100.00;101303.91;5034467;28;20490;-71
2022/02/10 21:24:39;;;;;;;0.40;0.30;;;;;;;6.74;100.00;101306.34;5034433;28;20457;-71
2022/02/10 21:27:25;;;;;;;0.40;0.27;;;;;;;6.77;100.00;101291.56;5034195;28;20811;-71
2022/02/10 21:29:57;;;;;;;0.40;0.30;;;;;;;6.78;100.00;101307.47;5034679;28;20451;-71
2022/02/10 21:32:26;;;;;;;0.40;0.30;;;;;;;6.77;100.00;101313.94;5034187;28;20467;-71
2022/02/10 21:35:08;;;;;;;0.40;0.30;;;;;;;6.78;100.00;101317.44;5033092;28;20435;-71
2022/02/10 21:37:43;;;;;;;0.40;0.30;;;;;;;6.72;100.00;101321.94;5034317;28;20941;-71
2022/02/10 21:40:25;;;;;;;0.40;0.30;;;;;;;6.59;100.00;101314.28;5033839;28;20521;-70
2022/02/10 21:48:26;;;;;;;0.40;0.30;;;;;;;6.50;100.00;101330.09;5033661;28;20515;-72
2022/02/10 21:56:40;;;;;;;0.40;0.30;;;;;;;5.56;100.00;101368.00;5031691;28;20446;-70
2022/02/10 21:59:40;;;;;;;0.40;0.20;;;;;;;5.06;100.00;101350.09;5033269;28;20475;-71
2022/02/10 22:10:51;;;;;;;0.40;0.30;;;;;;;4.24;100.00;101367.44;5011996;28;20502;-70
2022/02/10 22:18:51;;;;;;;0.40;0.30;;;;;;;4.22;100.00;101374.13;5033216;28;20976;-70
2022/02/10 22:21:23;;;;;;;0.40;0.30;;;;;;;4.17;100.00;101380.22;5032084;28;20802;-70
2022/02/10 22:23:49;;;;;;;0.40;0.30;;;;;;;4.09;100.00;101377.91;5033760;28;20439;-70
2022/02/10 22:26:24;;;;;;;0.40;0.30;;;;;;;3.98;100.00;101378.72;5033466;28;20439;-70
2022/02/10 22:28:56;;;;;;;0.40;0.30;;;;;;;4.08;100.00;101378.97;5033531;28;20428;-73
2022/02/10 22:34:17;;;;;;;0.40;0.20;;;;;;;4.13;100.00;101367.50;5032774;28;20493;-71
2022/02/10 22:36:46;;;;;;;0.40;0.30;;;;;;;4.19;100.00;101353.16;5032779;28;20983;-71
2022/02/10 22:39:15;;;;;;;0.40;0.30;;;;;;;4.25;100.00;101344.13;5033358;28;20537;-71
2022/02/10 22:41:41;;;;;;;0.40;0.20;;;;;;;4.23;100.00;101348.94;5032750;28;20557;-71
2022/02/10 22:44:08;;;;;;;0.40;0.20;;;;;;;4.27;100.00;101340.16;5033248;28;20887;-71
2022/02/10 22:46:35;;;;;;;0.50;0.50;;;;;;;4.37;100.00;101346.78;5033278;28;20450;-71
2022/02/10 22:49:02;;;;;;;0.40;0.20;;;;;;;4.38;100.00;101351.06;5033159;28;20453;-71
2022/02/10 22:51:32;;;;;;;0.40;0.30;;;;;;;4.34;100.00;101344.56;5032523;28;20467;-71
2022/02/10 22:53:59;;;;;;;0.40;0.30;;;;;;;4.39;100.00;101344.69;5033195;28;20451;-72
2022/02/10 22:56:29;;;;;;;0.40;0.27;;;;;;;4.41;100.00;101346.03;5033019;28;20439;-71
2022/02/10 22:58:57;;;;;;;0.40;0.20;;;;;;;4.42;100.00;101336.13;5033184;28;20534;-71
2022/02/10 23:01:24;;;;;;;0.40;0.27;;;;;;;4.45;100.00;101335.66;5032407;28;20566;-71
2022/02/10 23:03:50;;;;;;;0.40;0.30;;;;;;;4.43;100.00;101329.72;5033070;28;20450;-71
2022/02/10 23:06:17;;;;;;;0.40;0.30;;;;;;;4.40;100.00;101333.69;5032679;28;20439;-71
2022/02/10 23:08:45;;;;;;;0.40;0.30;;;;;;;4.35;100.00;101330.94;5033121;28;20458;-71
2022/02/10 23:11:13;;;;;;;0.40;0.20;;;;;;;4.33;100.00;101330.34;5032905;28;20513;-71
2022/02/10 23:13:45;;;;;;;0.40;0.30;;;;;;;4.35;100.00;101330.13;5033015;28;20501;-71
2022/02/10 23:16:13;;;;;;;0.40;0.20;;;;;;;4.31;100.00;101324.41;5033002;28;20444;-72
2022/02/10 23:18:41;;;;;;;0.40;0.23;;;;;;;4.34;100.00;101325.78;5032706;28;20948;-71
2022/02/10 23:21:10;;;;;;;0.40;0.30;;;;;;;4.36;100.00;101321.81;5032136;28;21024;-71
2022/02/10 23:23:38;;;;;;;0.40;0.27;;;;;;;4.35;100.00;101330.94;5032670;28;20944;-71
2022/02/10 23:26:08;;;;;;;0.40;0.20;;;;;;;4.34;100.00;101333.84;5032403;28;22780;-71
2022/02/10 23:28:37;;;;;;;0.40;0.20;;;;;;;4.37;100.00;101331.50;5032880;28;20431;-72
2022/02/10 23:31:05;;;;;;;0.40;0.30;;;;;;;4.36;100.00;101329.06;5032715;28;20472;-71
2022/02/10 23:33:34;;;;;;;0.40;0.30;;;;;;;4.33;100.00;101333.03;5032777;28;20481;-71
2022/02/10 23:36:36;;;;;;;0.40;0.30;;;;;;;4.25;100.00;101336.94;5032774;28;20455;-72
2022/02/10 23:39:09;;;;;;;0.40;0.30;;;;;;;4.27;100.00;101339.34;5032367;28;20439;-72
2022/02/10 23:44:29;;;;;;;0.40;0.23;;;;;;;4.26;100.00;101324.31;5032812;28;20414;-72
2022/02/10 23:46:56;;;;;;;0.40;0.30;;;;;;;4.20;100.00;101327.94;5032396;28;20462;-72
2022/02/10 23:49:25;;;;;;;0.40;0.30;;;;;;;4.26;100.00;101321.66;5032493;28;20474;-72
2022/02/10 23:51:56;;;;;;;0.40;0.30;;;;;;;4.36;100.00;101321.00;5032009;28;20474;-72
2022/02/10 23:54:23;;;;;;;0.40;0.30;;;;;;;4.29;100.00;101322.00;5036005;28;20435;-72
2022/02/10 23:56:57;;;;;;;0.40;0.20;;;;;;;4.27;100.00;101326.75;5035917;28;20477;-72
2022/02/10 23:59:35;;;;;;;0.40;0.20;;;;;;;4.34;100.00;101331.16;5036217;28;20439;-72
